Market Deeping, United Kingdom
Current Conditions -  °F | °C
As of 9:50 PM on Sunday 23 Nov 2014 (Local Time) from EGXT Reporting Station
Clear Clear  
Wind Chill: 30°   Ceiling: Unl
Heat Index: 37°   Visibility: 6mi
Dew Point: 37°   Wind: 10mph
Humidity: 100%   Direction: 270°W
Pressure: 30.12"   Gusts: NA
Location:  52.68°N, 0.32°W
Report Text: EGXT 232150Z AUTO 27009KT 9999 NCD 03/03 Q1020
Loading
Personal Weather Stations






























Interactive Weather Map New forecast layout! Learn more

10-Day Weather Forecast

Advertisements
Track Severe Weather on mobile